Time;durP1;ratioP1;P1;durP2;ratioP2;P2;SDS_P1;SDS_P2;PMS_P1;PMS_P2;Temp;Humidity;BMP_temperature;BMP_pressure;BME280_temperature;BME280_humidity;BME280_pressure;Samples;Min_cycle;Max_cycle;Signal;HPM_P1;HPM_P2
2022/11/20 00:01:22;;;;;;;25.88;15.95;;;;;;;4.37;93.62;97304.68;1630895;87;20999;-89
2022/11/20 00:03:51;;;;;;;23.90;14.85;;;;;;;4.39;93.73;97297.64;1581257;89;21054;-90
2022/11/20 00:06:19;;;;;;;23.50;14.55;;;;;;;4.44;94.02;97293.64;1614302;87;21009;-88
2022/11/20 00:08:47;;;;;;;21.57;14.18;;;;;;;4.49;94.26;97292.66;1633501;87;21072;-89
2022/11/20 00:11:20;;;;;;;20.20;12.85;;;;;;;4.52;94.46;97293.05;1625982;87;21028;-89
2022/11/20 00:13:51;;;;;;;19.77;12.33;;;;;;;4.58;94.25;97292.97;1645856;87;21074;-88
2022/11/20 00:16:22;;;;;;;17.87;12.18;;;;;;;4.63;94.66;97282.38;1596362;90;21002;-90
2022/11/20 00:18:49;;;;;;;20.40;13.00;;;;;;;4.71;94.95;97273.05;1640717;87;21422;-89
2022/11/20 00:21:22;;;;;;;18.98;12.23;;;;;;;4.73;94.96;97273.45;1643424;87;21103;-89
2022/11/20 00:23:51;;;;;;;20.48;11.80;;;;;;;4.76;94.53;97268.59;1643682;87;21028;-89
2022/11/20 00:26:20;;;;;;;18.60;11.57;;;;;;;4.79;94.73;97262.41;1643325;87;21021;-87
2022/11/20 00:28:55;;;;;;;19.48;12.68;;;;;;;4.83;94.99;97253.16;1620997;87;21077;-87
2022/11/20 00:31:23;;;;;;;18.12;12.45;;;;;;;4.90;95.07;97248.63;1642208;87;21065;-87
2022/11/20 00:33:51;;;;;;;20.55;12.18;;;;;;;4.93;94.93;97243.34;1643439;87;21111;-86
2022/11/20 00:36:22;;;;;;;18.02;12.53;;;;;;;4.88;94.37;97249.13;1643280;87;21047;-86
2022/11/20 00:38:56;;;;;;;21.62;13.18;;;;;;;4.84;94.55;97250.06;1623957;87;21459;-91
2022/11/20 00:41:26;;;;;;;;;;;;;;;4.79;94.43;97254.11;1602590;88;20998;-89
2022/11/20 00:43:54;;;;;;;22.05;13.83;;;;;;;4.82;95.21;97254.03;1615464;88;20119;-87
2022/11/20 00:46:24;;;;;;;21.57;12.82;;;;;;;4.84;95.23;97251.38;1639253;87;21016;-88
2022/11/20 00:48:50;;;;;;;18.17;11.73;;;;;;;4.81;94.91;97254.08;1624731;87;21556;-87
2022/11/20 00:51:20;;;;;;;21.10;12.37;;;;;;;4.84;94.99;97251.38;1643098;87;21020;-87
2022/11/20 00:53:47;;;;;;;17.00;11.20;;;;;;;4.85;94.81;97251.36;1589633;90;21041;-86
2022/11/20 00:56:18;;;;;;;17.05;10.60;;;;;;;4.87;94.99;97248.71;1622700;87;20996;-86
2022/11/20 00:58:47;;;;;;;14.13;10.10;;;;;;;4.89;94.81;97250.84;1568414;90;21081;-87
2022/11/20 01:01:18;;;;;;;15.30;10.28;;;;;;;4.89;94.87;97250.84;1622729;87;21383;-88
2022/11/20 01:03:48;;;;;;;15.83;10.60;;;;;;;4.84;94.64;97250.95;1589055;89;21096;-88
2022/11/20 01:06:30;;;;;;;15.18;10.20;;;;;;;4.88;95.40;97250.44;1622729;87;20992;-88
2022/11/20 01:08:59;;;;;;;15.80;10.88;;;;;;;4.89;95.11;97249.53;1589652;90;21040;-88
2022/11/20 01:11:30;;;;;;;16.62;11.25;;;;;;;4.84;95.27;97240.88;1622728;87;21055;-88
2022/11/20 01:13:59;;;;;;;14.98;10.68;;;;;;;4.83;95.28;97242.66;1589685;90;21483;-88
2022/11/20 01:16:30;;;;;;;16.35;12.07;;;;;;;4.84;95.46;97236.94;1639758;87;21505;-87
2022/11/20 01:19:00;;;;;;;18.02;11.48;;;;;;;4.84;95.37;97225.13;1651086;87;21023;-87
2022/11/20 01:21:36;;;;;;;18.02;11.25;;;;;;;4.79;95.31;97214.73;1651102;86;20996;-88
2022/11/20 01:24:06;;;;;;;14.68;9.93;;;;;;;4.75;95.29;97213.05;1643352;87;21567;-88
2022/11/20 01:26:36;;;;;;;17.07;10.68;;;;;;;4.73;95.19;97213.51;1643981;87;21008;-87
2022/11/20 01:29:04;;;;;;;15.48;10.55;;;;;;;4.70;95.10;97209.64;1643895;87;21013;-87
2022/11/20 01:31:35;;;;;;;19.23;11.05;;;;;;;4.66;95.13;97211.47;1631429;87;21060;-87
2022/11/20 01:34:13;;;;;;;18.95;11.60;;;;;;;4.61;94.59;97196.26;1643791;87;21020;-87
2022/11/20 01:36:41;;;;;;;17.82;11.50;;;;;;;4.55;94.82;97182.80;1643772;87;21024;-86
2022/11/20 01:39:18;;;;;;;18.10;11.28;;;;;;;4.50;94.83;97179.39;1643703;87;21450;-86
2022/11/20 01:44:58;;;;;;;15.88;11.18;;;;;;;4.46;95.26;97192.14;1640903;87;21044;-87
2022/11/20 01:47:38;;;;;;;18.62;12.18;;;;;;;4.43;95.23;97186.50;1626912;88;21455;-87
2022/11/20 01:50:10;;;;;;;18.73;12.73;;;;;;;4.40;95.19;97183.92;1610501;88;21026;-87
2022/11/20 01:52:48;;;;;;;18.90;11.75;;;;;;;4.38;95.23;97179.59;1634210;86;21036;-87
2022/11/20 01:55:31;;;;;;;17.57;11.28;;;;;;;4.37;95.23;97170.88;1638016;88;21013;-87
2022/11/20 01:57:59;;;;;;;19.23;12.23;;;;;;;4.36;95.29;97163.88;1637913;87;21003;-87
2022/11/20 02:00:25;;;;;;;21.20;12.53;;;;;;;4.34;95.07;97161.31;1637948;87;21048;-87
2022/11/20 02:03:00;;;;;;;19.15;12.07;;;;;;;4.26;94.75;97164.50;1638066;87;21060;-86
2022/11/20 02:05:44;;;;;;;;;;;;;;;4.25;95.19;97157.53;1640463;88;21032;-86
2022/11/20 02:08:13;;;;;;;18.45;12.05;;;;;;;4.23;95.27;97140.51;1638130;87;20392;-88
2022/11/20 02:10:39;;;;;;;21.73;13.68;;;;;;;4.20;95.53;97137.92;1637972;87;21442;-87
2022/11/20 02:15:52;;;;;;;17.98;12.07;;;;;;;4.18;95.42;97134.48;1638171;87;21048;-87
2022/11/20 02:18:21;;;;;;;18.42;11.83;;;;;;;4.12;95.21;97138.97;1638022;87;20985;-88
2022/11/20 02:20:56;;;;;;;18.02;11.30;;;;;;;4.12;95.78;97138.97;1637936;87;21004;-88
2022/11/20 02:23:33;;;;;;;17.73;11.33;;;;;;;4.07;95.98;97136.44;1639042;87;21078;-87
2022/11/20 02:26:03;;;;;;;19.50;11.53;;;;;;;4.04;96.06;97128.61;1639605;87;20993;-87
2022/11/20 02:28:30;;;;;;;17.42;11.08;;;;;;;3.99;96.02;97124.78;1639817;87;20981;-88
2022/11/20 02:30:56;;;;;;;14.73;10.25;;;;;;;3.97;96.50;97135.72;1629765;88;21032;-87
2022/11/20 02:33:23;;;;;;;16.20;10.15;;;;;;;3.95;96.41;97131.80;1629078;88;21052;-87
2022/11/20 02:35:50;;;;;;;15.58;10.68;;;;;;;3.96;96.56;97135.30;1638304;87;21001;-89
2022/11/20 02:38:16;;;;;;;13.70;9.30;;;;;;;3.96;96.39;97126.97;1635709;87;21010;-88
2022/11/20 02:40:44;;;;;;;15.38;9.95;;;;;;;3.98;96.21;97108.59;1637447;88;20997;-89
2022/11/20 02:43:11;;;;;;;15.08;9.55;;;;;;;4.00;95.93;97071.88;1638160;87;21043;-88
2022/11/20 02:45:38;;;;;;;13.62;9.53;;;;;;;4.05;96.23;97062.16;1639358;87;21051;-87
2022/11/20 02:48:06;;;;;;;13.53;9.80;;;;;;;4.12;96.21;97074.72;1640421;87;21056;-87
2022/11/20 02:50:33;;;;;;;13.50;9.65;;;;;;;4.17;96.24;97080.74;1640279;87;20993;-87
2022/11/20 02:52:59;;;;;;;15.03;9.30;;;;;;;4.26;96.63;97077.95;1640081;87;21052;-88
2022/11/20 02:55:26;;;;;;;11.57;7.97;;;;;;;4.34;96.90;97077.36;1639892;87;21365;-87
2022/11/20 02:57:52;;;;;;;30.27;13.55;;;;;;;4.38;96.38;97082.53;1640151;87;20980;-86
2022/11/20 03:00:19;;;;;;;24.57;11.43;;;;;;;4.41;96.77;97077.23;1639838;87;21426;-87
2022/11/20 03:02:47;;;;;;;21.68;9.83;;;;;;;4.46;96.73;97065.77;1639845;87;21028;-87
2022/11/20 03:05:14;;;;;;;9.25;6.28;;;;;;;4.50;96.48;97060.00;1639525;87;21016;-87
2022/11/20 03:07:40;;;;;;;26.42;9.95;;;;;;;4.47;96.36;97058.73;1639885;87;21087;-87
2022/11/20 03:10:08;;;;;;;49.63;15.80;;;;;;;4.49;96.57;97068.30;1639939;87;21081;-86
2022/11/20 03:12:34;;;;;;;59.70;18.65;;;;;;;4.51;96.61;97068.72;1639981;87;20988;-87
2022/11/20 03:15:01;;;;;;;33.35;10.35;;;;;;;4.49;96.30;97070.93;1639345;87;21000;-87
2022/11/20 03:17:29;;;;;;;18.00;7.75;;;;;;;4.52;96.57;97055.57;1639835;87;20973;-87
2022/11/20 03:19:55;;;;;;;29.90;10.20;;;;;;;4.55;96.40;97053.33;1639955;87;21021;-87
2022/11/20 03:22:22;;;;;;;16.40;7.62;;;;;;;4.60;96.96;97061.97;1639809;87;21024;-87
2022/11/20 03:24:48;;;;;;;14.20;7.72;;;;;;;4.64;97.04;97063.64;1639922;87;21001;-86
2022/11/20 03:27:15;;;;;;;16.23;8.28;;;;;;;4.70;96.82;97041.19;1639949;87;21028;-87
2022/11/20 03:29:41;;;;;;;18.70;9.80;;;;;;;4.70;96.86;97028.07;1639855;87;21028;-87
2022/11/20 03:32:08;;;;;;;10.03;6.67;;;;;;;4.78;97.20;97025.31;1626315;87;20961;-86
2022/11/20 03:34:34;;;;;;;3.87;2.58;;;;;;;4.83;97.02;97004.19;1639699;87;21004;-86
2022/11/20 03:37:01;;;;;;;2.58;1.90;;;;;;;4.87;97.34;96988.31;1639914;87;21470;-86
2022/11/20 03:39:27;;;;;;;2.55;1.50;;;;;;;4.88;97.02;96974.75;1639886;87;21064;-87
2022/11/20 03:41:54;;;;;;;2.12;1.52;;;;;;;4.82;96.57;96971.81;1640004;87;21037;-88
2022/11/20 03:44:21;;;;;;;2.77;1.72;;;;;;;4.73;96.00;96983.39;1639667;87;21040;-89
2022/11/20 03:46:48;;;;;;;1.92;1.30;;;;;;;4.67;95.81;97003.66;1639830;87;21052;-88
2022/11/20 03:49:14;;;;;;;2.55;1.52;;;;;;;4.54;95.16;97007.00;1639775;87;21660;-88
2022/11/20 03:51:41;;;;;;;2.62;1.70;;;;;;;4.48;95.58;97017.17;1639763;87;20989;-87
2022/11/20 03:54:08;;;;;;;3.35;1.92;;;;;;;4.41;95.57;96998.09;1639968;87;21470;-87
2022/11/20 03:56:38;;;;;;;2.45;1.60;;;;;;;4.35;95.61;97013.50;1639972;87;21415;-87
2022/11/20 03:59:06;;;;;;;1.62;1.17;;;;;;;4.31;95.74;97009.20;1639874;87;20988;-87
2022/11/20 04:01:39;;;;;;;2.02;1.20;;;;;;;4.26;95.60;97007.56;1638740;87;20988;-87
2022/11/20 04:04:05;;;;;;;2.27;1.35;;;;;;;4.21;95.43;97022.09;1638609;87;21084;-87
2022/11/20 04:06:37;;;;;;;1.82;1.30;;;;;;;4.20;95.72;97014.66;1636121;87;20925;-88
2022/11/20 04:09:06;;;;;;;1.52;1.22;;;;;;;4.16;95.67;97014.30;1638422;87;21019;-87
2022/11/20 04:11:36;;;;;;;2.77;1.00;;;;;;;4.12;95.55;97004.80;1637030;87;21084;-87
2022/11/20 04:14:05;;;;;;;1.80;1.30;;;;;;;4.09;95.66;97006.16;1639848;87;21060;-88
2022/11/20 04:16:35;;;;;;;2.40;1.25;;;;;;;4.04;95.46;97006.69;1639918;87;21004;-87
2022/11/20 04:19:06;;;;;;;1.80;1.17;;;;;;;4.03;95.75;96999.73;1639884;87;21032;-87
2022/11/20 04:21:33;;;;;;;1.55;1.07;;;;;;;4.04;96.06;97005.37;1639825;87;21053;-87
2022/11/20 04:23:59;;;;;;;1.57;0.90;;;;;;;4.03;95.95;97005.81;1637788;87;21044;-87
2022/11/20 04:26:28;;;;;;;1.80;1.10;;;;;;;4.03;95.77;97008.91;1639798;87;21040;-87
2022/11/20 04:28:56;;;;;;;1.75;1.05;;;;;;;4.00;95.66;96995.84;1639879;87;20977;-87
2022/11/20 04:31:27;;;;;;;1.42;1.12;;;;;;;4.00;95.76;96989.29;1626672;87;21438;-87
2022/11/20 04:33:54;;;;;;;1.87;1.22;;;;;;;3.97;95.77;96984.97;1635251;87;21009;-86
2022/11/20 04:36:24;;;;;;;3.02;1.80;;;;;;;3.96;95.62;96995.05;1639864;87;21497;-87
2022/11/20 04:38:56;;;;;;;2.98;1.75;;;;;;;3.94;95.64;96999.44;1639746;87;21024;-87
2022/11/20 04:41:26;;;;;;;3.30;1.70;;;;;;;3.87;95.61;96990.85;1639565;87;21032;-87
2022/11/20 04:43:59;;;;;;;2.45;1.72;;;;;;;3.86;95.93;96989.09;1639763;87;21040;-87
2022/11/20 04:46:27;;;;;;;2.70;2.00;;;;;;;3.87;96.10;96980.80;1631600;87;21058;-87
2022/11/20 04:48:54;;;;;;;3.60;2.25;;;;;;;3.89;96.10;96978.56;1651134;87;21430;-87
2022/11/20 04:51:21;;;;;;;2.75;2.02;;;;;;;3.92;96.08;96967.16;1651309;86;21111;-87
2022/11/20 04:53:48;;;;;;;3.02;1.87;;;;;;;3.94;96.20;96962.73;1625775;87;21003;-87
2022/11/20 04:56:15;;;;;;;2.85;1.92;;;;;;;3.93;96.06;96956.64;1651023;87;20988;-86
2022/11/20 04:58:42;;;;;;;3.58;2.22;;;;;;;3.92;96.11;96958.86;1651113;87;21457;-86
2022/11/20 05:01:16;;;;;;;3.17;2.00;;;;;;;3.92;96.21;96957.55;1650954;87;21094;-86
2022/11/20 05:03:44;;;;;;;3.93;2.03;;;;;;;3.92;95.92;96960.60;1640099;87;21044;-86
2022/11/20 05:06:14;;;;;;;3.65;2.67;;;;;;;3.88;96.17;96950.63;1639871;87;21056;-86
2022/11/20 05:08:41;;;;;;;4.83;2.55;;;;;;;3.87;96.02;96944.10;1639825;87;21035;-86
2022/11/20 05:11:12;;;;;;;2.85;2.02;;;;;;;3.87;96.31;96944.98;1639743;87;20984;-86
2022/11/20 05:13:42;;;;;;;3.40;2.17;;;;;;;3.88;96.05;96936.22;1639837;87;21394;-86
2022/11/20 05:16:17;;;;;;;5.10;2.65;;;;;;;3.88;96.33;96935.34;1632752;87;21016;-86
2022/11/20 05:18:44;;;;;;;5.95;3.22;;;;;;;3.90;96.32;96931.80;1640001;87;21005;-85
2022/11/20 05:21:12;;;;;;;5.80;2.72;;;;;;;3.92;96.46;96926.09;1639913;87;21008;-86
2022/11/20 05:23:40;;;;;;;3.37;2.65;;;;;;;3.97;96.54;96920.73;1639634;87;21044;-86
2022/11/20 05:26:14;;;;;;;3.40;2.10;;;;;;;4.02;96.40;96912.80;1637384;87;21028;-86
2022/11/20 05:28:40;;;;;;;;;;;;;;;4.03;96.08;96908.80;1642202;87;20996;-85
2022/11/20 05:31:13;;;;;;;2.08;1.40;;;;;;;4.05;95.97;96915.33;1629459;87;20126;-86
2022/11/20 05:33:42;;;;;;;1.45;1.10;;;;;;;4.05;95.95;96914.90;1637998;87;21017;-86
2022/11/20 05:36:09;;;;;;;1.47;0.85;;;;;;;4.10;96.10;96916.09;1639644;87;21020;-87
2022/11/20 05:38:36;;;;;;;2.17;1.30;;;;;;;4.09;95.62;96909.14;1639825;87;21032;-86
2022/11/20 05:41:15;;;;;;;3.85;1.90;;;;;;;4.11;95.84;96910.42;1638807;87;21013;-86
2022/11/20 05:43:46;;;;;;;2.98;1.70;;;;;;;4.13;95.81;96915.17;1638120;87;21104;-86
2022/11/20 05:46:15;;;;;;;3.30;2.02;;;;;;;4.17;95.77;96917.71;1639090;87;21025;-86
2022/11/20 05:48:43;;;;;;;3.00;1.87;;;;;;;4.20;95.63;96927.27;1637959;88;21024;-87
2022/11/20 05:51:15;;;;;;;2.55;1.77;;;;;;;4.25;96.04;96929.78;1637864;87;21004;-86
2022/11/20 05:53:42;;;;;;;2.27;1.52;;;;;;;4.30;96.02;96939.29;1637971;87;21060;-86
2022/11/20 05:56:16;;;;;;;2.08;1.52;;;;;;;4.36;96.17;96946.14;1637997;88;20981;-88
2022/11/20 05:58:43;;;;;;;3.08;1.92;;;;;;;4.45;96.33;96952.50;1637940;88;21039;-87
2022/11/20 06:01:23;;;;;;;2.95;2.02;;;;;;;4.53;96.46;96939.21;1637916;87;21434;-87
2022/11/20 06:03:51;;;;;;;2.40;1.72;;;;;;;4.63;96.24;96939.88;1637605;87;21052;-87
2022/11/20 06:06:20;;;;;;;2.22;1.67;;;;;;;4.64;95.93;96936.83;1619392;88;21025;-86
2022/11/20 06:08:49;;;;;;;2.72;1.80;;;;;;;4.70;96.22;96936.20;1638023;87;21459;-86
2022/11/20 06:11:17;;;;;;;3.55;2.30;;;;;;;4.75;96.64;96943.98;1637691;88;21084;-86
2022/11/20 06:13:45;;;;;;;3.42;2.15;;;;;;;4.82;95.87;96949.50;1637847;87;21028;-86
2022/11/20 06:16:15;;;;;;;7.12;3.35;;;;;;;4.78;95.59;96944.37;1637830;88;21434;-87
2022/11/20 06:18:42;;;;;;;6.30;3.62;;;;;;;4.71;95.29;96931.83;1637490;88;21044;-86
2022/11/20 06:21:18;;;;;;;5.05;3.17;;;;;;;4.71;95.79;96928.77;1637946;88;21506;-86
2022/11/20 06:23:45;;;;;;;5.55;3.50;;;;;;;4.67;95.46;96949.42;1620643;88;21029;-86
2022/11/20 06:26:16;;;;;;;6.08;3.33;;;;;;;4.64;95.44;96943.38;1637732;87;21060;-86
2022/11/20 06:28:42;;;;;;;4.87;3.10;;;;;;;4.61;95.70;96947.78;1637828;87;21562;-84
2022/11/20 06:31:13;;;;;;;5.00;3.10;;;;;;;4.54;95.23;96940.09;1627078;88;20996;-87
2022/11/20 06:33:41;;;;;;;3.72;2.80;;;;;;;4.52;95.53;96937.49;1636004;88;21002;-87
2022/11/20 06:36:09;;;;;;;3.65;2.55;;;;;;;4.51;95.42;96934.46;1638046;87;21069;-86
2022/11/20 06:38:37;;;;;;;3.75;2.90;;;;;;;4.53;95.52;96935.28;1637760;87;21116;-87
2022/11/20 06:41:05;;;;;;;4.90;3.20;;;;;;;4.49;95.22;96942.83;1637902;87;21012;-88
2022/11/20 06:43:31;;;;;;;4.62;3.02;;;;;;;4.46;95.68;96933.27;1638014;87;21462;-89
2022/11/20 06:45:59;;;;;;;4.05;3.08;;;;;;;4.42;95.32;96943.84;1637976;88;21005;-88
2022/11/20 06:48:28;;;;;;;4.33;3.50;;;;;;;4.41;95.43;96939.06;1639238;87;21051;-87
2022/11/20 06:50:54;;;;;;;5.67;3.15;;;;;;;4.40;95.39;96949.12;1640043;87;21053;-88
2022/11/20 06:53:22;;;;;;;5.05;3.40;;;;;;;4.38;95.30;96959.23;1639842;87;21096;-87
2022/11/20 06:55:50;;;;;;;6.75;4.40;;;;;;;4.38;95.49;96968.41;1638242;87;21470;-88
2022/11/20 06:58:18;;;;;;;5.87;4.10;;;;;;;4.37;95.62;96964.95;1637945;87;21017;-87
2022/11/20 07:00:46;;;;;;;6.67;4.55;;;;;;;4.38;95.68;96973.23;1637582;87;21040;-88
2022/11/20 07:03:13;;;;;;;9.23;5.78;;;;;;;4.36;95.69;96973.69;1627230;87;21020;-88
2022/11/20 07:05:40;;;;;;;8.35;5.33;;;;;;;4.31;95.64;96968.98;1627232;87;20976;-88
2022/11/20 07:08:07;;;;;;;9.55;5.58;;;;;;;4.30;95.62;96973.83;1621756;87;21031;-88
2022/11/20 07:10:34;;;;;;;7.20;5.60;;;;;;;4.32;95.78;96970.73;1636117;87;21084;-87
2022/11/20 07:13:01;;;;;;;10.18;6.75;;;;;;;4.33;95.57;96948.85;1623874;88;21447;-87
2022/11/20 07:15:28;;;;;;;13.30;7.03;;;;;;;4.30;95.66;96956.34;1590943;89;21006;-88
2022/11/20 07:17:54;;;;;;;9.75;6.95;;;;;;;4.32;95.83;96955.84;1587809;90;21061;-87
2022/11/20 07:20:21;;;;;;;10.00;7.08;;;;;;;4.34;96.04;96960.63;1600949;88;21466;-86
2022/11/20 07:22:56;;;;;;;16.90;8.15;;;;;;;4.34;95.83;96959.75;1603866;89;21000;-86
2022/11/20 07:25:28;;;;;;;9.98;7.45;;;;;;;4.34;96.15;96961.06;1590513;90;21132;-88
2022/11/20 07:27:59;;;;;;;9.80;6.75;;;;;;;4.35;96.12;96962.34;1603930;89;20972;-88
2022/11/20 07:30:29;;;;;;;11.78;7.33;;;;;;;4.35;95.96;96959.73;1586843;90;21852;-88
2022/11/20 07:32:57;;;;;;;10.48;7.37;;;;;;;4.37;96.03;96959.70;1610665;88;21065;-88
2022/11/20 07:35:25;;;;;;;10.93;7.55;;;;;;;4.39;96.22;96960.98;1590187;90;21083;-87
2022/11/20 07:37:51;;;;;;;10.63;7.70;;;;;;;4.39;95.85;96966.23;1590397;90;21595;-87
2022/11/20 07:40:19;;;;;;;11.12;7.53;;;;;;;4.39;96.24;96964.92;1590480;90;21038;-87
2022/11/20 07:42:52;;;;;;;12.60;7.92;;;;;;;4.38;96.12;96957.48;1599103;90;21048;-86
2022/11/20 07:45:20;;;;;;;15.45;8.68;;;;;;;4.40;96.00;96964.86;1626788;88;21001;-86
2022/11/20 07:47:47;;;;;;;12.20;7.53;;;;;;;4.44;96.22;96963.06;1626931;87;21120;-86
2022/11/20 07:50:14;;;;;;;10.23;7.33;;;;;;;4.46;96.03;96964.75;1626917;88;21001;-87
2022/11/20 07:52:41;;;;;;;11.05;7.62;;;;;;;4.48;96.48;96972.12;1626924;88;21041;-87
2022/11/20 07:55:10;;;;;;;12.07;8.00;;;;;;;4.55;96.29;96975.92;1626971;88;21077;-86
2022/11/20 07:57:37;;;;;;;10.68;7.55;;;;;;;4.64;96.75;96985.38;1626901;88;21112;-86
2022/11/20 08:00:08;;;;;;;9.45;7.05;;;;;;;4.69;96.53;96997.95;1626822;88;21013;-86
2022/11/20 08:02:41;;;;;;;9.03;6.20;;;;;;;4.70;96.41;96987.85;1611902;88;20986;-86
2022/11/20 08:05:11;;;;;;;10.55;7.12;;;;;;;4.71;96.44;96981.27;1595081;89;21416;-86
2022/11/20 08:07:43;;;;;;;10.63;7.40;;;;;;;4.77;96.63;96992.05;1579205;90;21097;-86
2022/11/20 08:10:14;;;;;;;14.13;6.90;;;;;;;4.75;96.37;96997.36;1601130;88;21400;-86
2022/11/20 08:15:33;;;;;;;10.28;6.55;;;;;;;4.79;96.65;96983.71;1587931;90;21026;-87
2022/11/20 08:18:11;;;;;;;11.63;7.67;;;;;;;4.85;96.50;96991.88;1601181;88;21065;-86
2022/11/20 08:20:38;;;;;;;16.60;9.25;;;;;;;4.87;96.53;96988.31;1602110;89;21032;-85
2022/11/20 08:23:07;;;;;;;13.80;9.13;;;;;;;4.95;96.60;96991.23;1597816;90;21005;-85
2022/11/20 08:25:35;;;;;;;15.30;10.15;;;;;;;4.96;96.28;97000.83;1616525;88;21033;-86
2022/11/20 08:28:06;;;;;;;16.00;10.05;;;;;;;4.98;96.35;96989.86;1625171;88;21072;-88
2022/11/20 08:30:34;;;;;;;14.05;9.88;;;;;;;5.00;96.59;96993.30;1619610;88;20985;-87
2022/11/20 08:33:12;;;;;;;12.30;8.55;;;;;;;5.01;96.49;97001.59;1623975;88;21032;-87
2022/11/20 08:35:37;;;;;;;11.00;8.05;;;;;;;5.02;96.31;96994.11;1637182;87;21120;-88
2022/11/20 08:38:06;;;;;;;11.65;7.87;;;;;;;5.05;96.63;96987.48;1638289;87;21414;-87
2022/11/20 08:40:33;;;;;;;11.40;7.62;;;;;;;5.04;96.19;96987.52;1638253;86;21036;-89
2022/11/20 08:43:00;;;;;;;11.33;7.65;;;;;;;5.05;96.23;96988.80;1638371;88;21024;-89
2022/11/20 08:45:27;;;;;;;10.13;7.17;;;;;;;5.06;96.42;96983.11;1638685;87;21032;-89
2022/11/20 08:47:53;;;;;;;9.38;7.03;;;;;;;5.06;96.48;96980.48;1641837;87;21077;-86
2022/11/20 08:50:20;;;;;;;10.58;7.40;;;;;;;5.06;96.25;96997.55;1643038;87;21041;-88
2022/11/20 08:52:47;;;;;;;10.93;7.45;;;;;;;5.01;96.25;97002.46;1643020;86;21017;-87
2022/11/20 08:55:14;;;;;;;10.65;7.35;;;;;;;5.02;96.17;97012.50;1643160;87;21017;-86
2022/11/20 08:57:40;;;;;;;10.60;7.00;;;;;;;4.99;95.92;97021.78;1638509;87;21432;-87
2022/11/20 09:00:10;;;;;;;12.37;7.53;;;;;;;4.93;96.07;97016.64;1639533;87;21039;-86
2022/11/20 09:02:37;;;;;;;12.88;7.37;;;;;;;4.89;96.36;97009.30;1614173;87;21431;-84
2022/11/20 09:05:04;;;;;;;13.18;7.87;;;;;;;4.89;96.45;97014.55;1591520;89;20995;-84
2022/11/20 09:07:31;;;;;;;16.10;8.40;;;;;;;4.91;96.10;97010.14;1579260;91;21473;-84
2022/11/20 09:09:57;;;;;;;14.75;8.43;;;;;;;4.89;96.52;97001.41;1580354;89;21049;-84
2022/11/20 09:12:23;;;;;;;15.35;8.33;;;;;;;4.91;96.17;96997.02;1586296;90;21017;-88
2022/11/20 09:14:50;;;;;;;12.47;7.90;;;;;;;4.91;96.49;97006.20;1598849;89;21433;-87
2022/11/20 09:17:17;;;;;;;10.18;7.08;;;;;;;4.96;96.72;97011.33;1593776;89;21051;-86
2022/11/20 09:19:43;;;;;;;9.53;7.15;;;;;;;4.99;96.73;97013.43;1576316;91;21502;-86
2022/11/20 09:22:09;;;;;;;10.93;7.05;;;;;;;5.00;96.46;97013.00;1583499;90;20986;-86
2022/11/20 09:24:36;;;;;;;10.40;6.90;;;;;;;4.99;96.70;97005.55;1587244;89;21055;-86
2022/11/20 09:27:04;;;;;;;9.95;6.97;;;;;;;5.02;96.71;97000.67;1599868;89;21454;-84
2022/11/20 09:29:31;;;;;;;11.20;7.15;;;;;;;5.03;96.48;96997.18;1578384;90;21048;-85
2022/11/20 09:31:57;;;;;;;9.35;6.70;;;;;;;5.04;96.61;96995.39;1570700;91;21461;-84
2022/11/20 09:34:24;;;;;;;10.00;6.78;;;;;;;5.07;96.80;96996.18;1574295;90;21091;-87
2022/11/20 09:36:51;;;;;;;9.40;6.80;;;;;;;5.12;96.62;96998.25;1578591;90;21022;-86
2022/11/20 09:39:17;;;;;;;7.87;5.80;;;;;;;5.14;96.46;96996.90;1596499;88;21091;-87
2022/11/20 09:42:01;;;;;;;8.88;6.35;;;;;;;5.15;96.25;96999.50;1591604;89;21046;-88
2022/11/20 09:45:10;;;;;;;10.95;6.90;;;;;;;5.16;96.04;97004.31;1587255;89;21032;-87
2022/11/20 09:47:45;;;;;;;8.40;6.25;;;;;;;5.12;96.05;97008.75;1574275;87;21070;-85
2022/11/20 09:50:34;;;;;;;10.13;6.60;;;;;;;5.11;96.06;96989.11;1585266;89;21126;-84
2022/11/20 09:53:21;;;;;;;9.48;6.75;;;;;;;5.14;96.39;96989.90;1586221;89;21045;-86
2022/11/20 09:55:50;;;;;;;9.13;6.17;;;;;;;5.18;96.35;96984.11;1584932;90;21101;-85
2022/11/20 09:58:32;;;;;;;10.65;6.67;;;;;;;5.23;96.52;96989.27;1590254;90;21064;-86
2022/11/20 10:01:16;;;;;;;11.03;6.87;;;;;;;5.25;96.24;96994.90;1584156;90;21040;-86
2022/11/20 10:03:51;;;;;;;7.42;5.53;;;;;;;5.32;96.37;96988.17;1586559;90;21440;-84
2022/11/20 10:06:24;;;;;;;8.20;5.28;;;;;;;5.36;96.14;96980.63;1588960;90;21023;-84
2022/11/20 10:09:14;;;;;;;8.20;6.33;;;;;;;5.43;96.28;96984.81;1589503;89;21052;-85
2022/11/20 10:11:54;;;;;;;8.15;4.70;;;;;;;5.53;96.42;96986.78;1594474;90;21016;-87
2022/11/20 10:14:35;;;;;;;7.17;4.67;;;;;;;5.61;96.22;96974.27;1607224;89;21059;-88
2022/11/20 10:17:23;;;;;;;5.75;3.52;;;;;;;5.68;96.32;96983.75;1585851;90;21072;-85
2022/11/20 10:20:17;;;;;;;4.47;3.37;;;;;;;5.78;95.83;96971.20;1589175;89;21031;-85
2022/11/20 10:22:58;;;;;;;6.08;3.45;;;;;;;5.84;95.25;96986.40;1573718;90;21017;-84
2022/11/20 10:25:38;;;;;;;5.00;3.77;;;;;;;5.90;95.55;96983.16;1572808;89;21482;-84
2022/11/20 10:28:32;;;;;;;8.10;3.30;;;;;;;5.93;95.14;96975.20;1554824;90;21539;-80
2022/11/20 10:31:08;;;;;;;4.00;2.75;;;;;;;5.99;95.27;96971.98;1605507;88;21028;-82
2022/11/20 10:33:45;;;;;;;3.22;2.30;;;;;;;6.11;95.84;96974.32;1606729;89;21435;-74
2022/11/20 10:36:20;;;;;;;3.05;2.20;;;;;;;6.16;92.45;96983.38;1597046;89;21078;-74
2022/11/20 10:38:52;;;;;;;3.05;2.02;;;;;;;6.18;94.03;96970.59;1581532;89;21036;-74
2022/11/20 10:41:32;;;;;;;3.05;2.00;;;;;;;6.22;94.57;96980.57;1580794;90;21048;-74
2022/11/20 10:44:04;;;;;;;2.27;1.70;;;;;;;6.23;92.54;96980.97;1587129;90;21113;-73
2022/11/20 10:46:37;;;;;;;2.17;1.72;;;;;;;6.26;93.43;96971.69;1594650;90;21357;-72
2022/11/20 10:49:15;;;;;;;2.62;2.02;;;;;;;6.34;94.28;96962.25;1613164;87;20989;-73
2022/11/20 10:52:11;;;;;;;3.17;1.98;;;;;;;6.36;93.88;96957.83;1588780;90;21072;-73
2022/11/20 10:54:49;;;;;;;2.08;1.87;;;;;;;6.43;94.13;96969.00;1548368;92;21058;-74
2022/11/20 10:57:26;;;;;;;2.20;2.00;;;;;;;6.39;92.64;96972.66;1610737;89;20961;-74
2022/11/20 11:00:04;;;;;;;2.42;1.62;;;;;;;6.39;93.54;96973.98;1597772;90;21169;-74
2022/11/20 11:02:41;;;;;;;2.65;1.92;;;;;;;6.39;93.48;96966.08;1614179;88;21071;-73
2022/11/20 11:05:19;;;;;;;2.08;1.65;;;;;;;6.40;93.62;96973.91;1597899;90;21120;-74
2022/11/20 11:07:53;;;;;;;3.27;1.70;;;;;;;6.45;93.42;96973.31;1614110;89;21004;-74
2022/11/20 11:10:34;;;;;;;2.20;1.70;;;;;;;6.49;92.57;96973.23;1598450;90;21048;-74
2022/11/20 11:13:01;;;;;;;3.60;2.02;;;;;;;6.46;93.00;96976.83;1614000;87;21060;-73
2022/11/20 11:15:40;;;;;;;2.12;1.60;;;;;;;6.38;90.96;96973.55;1598100;90;21505;-73
2022/11/20 11:18:11;;;;;;;1.77;1.20;;;;;;;6.35;91.64;96970.55;1614534;89;21026;-73
2022/11/20 11:20:38;;;;;;;2.47;1.42;;;;;;;6.30;91.68;96985.17;1598097;90;21017;-73
2022/11/20 11:23:05;;;;;;;1.80;1.32;;;;;;;6.31;92.23;96975.52;1614413;88;21023;-73
2022/11/20 11:25:37;;;;;;;2.40;1.75;;;;;;;6.33;91.90;96986.84;1598128;90;21418;-73
2022/11/20 11:28:24;;;;;;;1.85;1.60;;;;;;;6.33;91.91;96992.11;1614335;89;21019;-73
2022/11/20 11:30:50;;;;;;;2.33;1.60;;;;;;;6.31;90.48;96981.63;1591085;90;21032;-74
2022/11/20 11:33:27;;;;;;;2.27;1.72;;;;;;;6.28;90.79;96976.91;1614230;89;20992;-74
2022/11/20 11:35:58;;;;;;;2.22;1.77;;;;;;;6.20;89.87;96980.61;1598204;90;21016;-73
2022/11/20 11:38:45;;;;;;;2.45;1.60;;;;;;;6.22;91.65;96973.15;1614449;89;21035;-73
2022/11/20 11:41:31;;;;;;;2.10;1.70;;;;;;;6.30;92.13;96972.45;1577313;90;21060;-73
2022/11/20 11:46:54;;;;;;;2.98;1.90;;;;;;;6.36;90.97;96974.05;1598212;90;21020;-73
2022/11/20 11:49:21;;;;;;;2.43;1.70;;;;;;;6.32;90.39;96981.19;1624558;87;21038;-73
2022/11/20 11:52:13;;;;;;;2.00;1.70;;;;;;;6.30;90.85;96989.12;1651306;87;21075;-73
2022/11/20 11:54:48;;;;;;;2.05;1.85;;;;;;;6.30;91.53;96989.12;1651030;87;20992;-73
2022/11/20 11:57:38;;;;;;;2.42;1.87;;;;;;;6.31;91.27;96986.89;1643888;87;21017;-73
2022/11/20 12:00:12;;;;;;;2.58;1.80;;;;;;;6.30;90.77;96988.24;1643906;87;21426;-74
2022/11/20 12:02:59;;;;;;;2.58;2.00;;;;;;;6.23;91.21;96991.50;1643908;87;21031;-74
2022/11/20 12:05:49;;;;;;;2.55;1.90;;;;;;;6.19;91.40;96992.05;1643800;86;20989;-73